sensor_id;sensor_type;location;lat;lon;timestamp;pressure;altitude;pressure_sealevel;temperature;humidity
19457;BME280;9867;48.094;11.478;2022-10-26T00:00:49;95315.22;;;11.53;100.00
19457;BME280;9867;48.094;11.478;2022-10-26T00:03:19;95319.72;;;11.18;100.00
19457;BME280;9867;48.094;11.478;2022-10-26T00:05:46;95318.56;;;11.47;100.00
19457;BME280;9867;48.094;11.478;2022-10-26T00:08:14;95315.03;;;11.81;100.00
19457;BME280;9867;48.094;11.478;2022-10-26T00:10:43;95318.94;;;12.10;100.00
19457;BME280;9867;48.094;11.478;2022-10-26T00:13:11;95312.16;;;12.28;100.00
19457;BME280;9867;48.094;11.478;2022-10-26T00:15:40;95309.47;;;12.04;100.00
19457;BME280;9867;48.094;11.478;2022-10-26T00:18:08;95307.31;;;11.94;100.00
19457;BME280;9867;48.094;11.478;2022-10-26T00:20:37;95305.72;;;12.00;100.00
19457;BME280;9867;48.094;11.478;2022-10-26T00:23:05;95301.31;;;12.20;100.00
19457;BME280;9867;48.094;11.478;2022-10-26T00:25:33;95298.91;;;12.32;100.00
19457;BME280;9867;48.094;11.478;2022-10-26T00:28:01;95305.78;;;12.44;100.00
19457;BME280;9867;48.094;11.478;2022-10-26T00:30:29;95304.41;;;12.48;100.00
19457;BME280;9867;48.094;11.478;2022-10-26T00:32:57;95303.34;;;12.62;100.00
19457;BME280;9867;48.094;11.478;2022-10-26T00:35:24;95303.94;;;12.64;100.00
19457;BME280;9867;48.094;11.478;2022-10-26T00:38:12;95301.63;;;12.50;100.00
19457;BME280;9867;48.094;11.478;2022-10-26T00:40:40;95295.91;;;12.41;100.00
19457;BME280;9867;48.094;11.478;2022-10-26T00:43:13;95286.19;;;12.50;100.00
19457;BME280;9867;48.094;11.478;2022-10-26T00:45:42;95287.97;;;12.49;100.00
19457;BME280;9867;48.094;11.478;2022-10-26T00:48:16;95292.06;;;12.57;100.00
19457;BME280;9867;48.094;11.478;2022-10-26T00:50:46;95302.38;;;12.57;100.00
19457;BME280;9867;48.094;11.478;2022-10-26T00:53:16;95307.19;;;12.34;100.00
19457;BME280;9867;48.094;11.478;2022-10-26T00:55:46;95299.84;;;12.50;100.00
19457;BME280;9867;48.094;11.478;2022-10-26T00:58:15;95309.47;;;12.68;100.00
19457;BME280;9867;48.094;11.478;2022-10-26T01:00:44;95304.53;;;12.67;100.00
19457;BME280;9867;48.094;11.478;2022-10-26T01:03:14;95303.44;;;12.81;100.00
19457;BME280;9867;48.094;11.478;2022-10-26T01:05:44;95309.38;;;12.88;100.00
19457;BME280;9867;48.094;11.478;2022-10-26T01:08:13;95308.16;;;12.90;100.00
19457;BME280;9867;48.094;11.478;2022-10-26T01:10:44;95309.78;;;12.78;100.00
19457;BME280;9867;48.094;11.478;2022-10-26T01:13:14;95295.97;;;12.73;100.00
19457;BME280;9867;48.094;11.478;2022-10-26T01:15:49;95291.97;;;12.77;100.00
19457;BME280;9867;48.094;11.478;2022-10-26T01:18:22;95287.00;;;12.82;100.00
19457;BME280;9867;48.094;11.478;2022-10-26T01:21:18;95289.63;;;12.75;100.00
19457;BME280;9867;48.094;11.478;2022-10-26T01:24:11;95283.06;;;12.79;100.00
19457;BME280;9867;48.094;11.478;2022-10-26T01:26:56;95297.66;;;12.92;100.00
19457;BME280;9867;48.094;11.478;2022-10-26T01:32:32;95312.16;;;12.28;100.00
19457;BME280;9867;48.094;11.478;2022-10-26T01:35:06;95324.66;;;12.12;100.00
19457;BME280;9867;48.094;11.478;2022-10-26T01:37:37;95313.19;;;12.21;100.00
19457;BME280;9867;48.094;11.478;2022-10-26T01:40:11;95292.56;;;12.34;100.00
19457;BME280;9867;48.094;11.478;2022-10-26T01:42:48;95302.91;;;12.08;100.00
19457;BME280;9867;48.094;11.478;2022-10-26T01:45:18;95290.84;;;12.15;100.00
19457;BME280;9867;48.094;11.478;2022-10-26T01:47:48;95305.47;;;12.14;100.00
19457;BME280;9867;48.094;11.478;2022-10-26T01:50:17;95307.84;;;12.16;100.00
19457;BME280;9867;48.094;11.478;2022-10-26T01:52:48;95293.56;;;12.33;100.00
19457;BME280;9867;48.094;11.478;2022-10-26T01:55:43;95280.88;;;12.38;100.00
19457;BME280;9867;48.094;11.478;2022-10-26T01:58:32;95294.22;;;12.09;100.00
19457;BME280;9867;48.094;11.478;2022-10-26T02:01:13;95311.22;;;12.16;100.00
19457;BME280;9867;48.094;11.478;2022-10-26T02:03:50;95312.38;;;12.27;100.00
19457;BME280;9867;48.094;11.478;2022-10-26T02:06:29;95308.03;;;12.27;100.00
19457;BME280;9867;48.094;11.478;2022-10-26T02:09:07;95291.44;;;12.17;100.00
19457;BME280;9867;48.094;11.478;2022-10-26T02:11:40;95300.88;;;12.36;100.00
19457;BME280;9867;48.094;11.478;2022-10-26T02:14:13;95308.56;;;12.49;100.00
19457;BME280;9867;48.094;11.478;2022-10-26T02:16:52;95308.25;;;12.19;100.00
19457;BME280;9867;48.094;11.478;2022-10-26T02:19:31;95302.09;;;12.27;100.00
19457;BME280;9867;48.094;11.478;2022-10-26T02:22:03;95311.41;;;12.08;100.00
19457;BME280;9867;48.094;11.478;2022-10-26T02:24:33;95325.88;;;12.03;100.00
19457;BME280;9867;48.094;11.478;2022-10-26T02:27:05;95319.31;;;12.13;100.00
19457;BME280;9867;48.094;11.478;2022-10-26T02:29:33;95328.56;;;12.41;100.00
19457;BME280;9867;48.094;11.478;2022-10-26T02:32:02;95297.28;;;12.44;100.00
19457;BME280;9867;48.094;11.478;2022-10-26T02:34:35;95326.84;;;12.08;100.00
19457;BME280;9867;48.094;11.478;2022-10-26T02:37:06;95317.38;;;12.02;100.00
19457;BME280;9867;48.094;11.478;2022-10-26T02:39:36;95330.81;;;12.17;100.00
19457;BME280;9867;48.094;11.478;2022-10-26T02:42:07;95327.38;;;12.30;100.00
19457;BME280;9867;48.094;11.478;2022-10-26T02:44:40;95314.72;;;12.35;100.00
19457;BME280;9867;48.094;11.478;2022-10-26T02:47:10;95310.53;;;12.47;100.00
19457;BME280;9867;48.094;11.478;2022-10-26T02:49:39;95300.38;;;12.66;100.00
19457;BME280;9867;48.094;11.478;2022-10-26T02:52:10;95298.50;;;12.79;100.00
19457;BME280;9867;48.094;11.478;2022-10-26T02:54:50;95300.28;;;12.79;100.00
19457;BME280;9867;48.094;11.478;2022-10-26T02:57:22;95279.16;;;12.70;100.00
19457;BME280;9867;48.094;11.478;2022-10-26T02:59:52;95276.63;;;12.63;100.00
19457;BME280;9867;48.094;11.478;2022-10-26T03:02:21;95298.47;;;12.48;100.00
19457;BME280;9867;48.094;11.478;2022-10-26T03:04:51;95285.31;;;12.62;100.00
19457;BME280;9867;48.094;11.478;2022-10-26T03:07:20;95291.25;;;12.63;100.00
19457;BME280;9867;48.094;11.478;2022-10-26T03:09:48;95282.44;;;12.46;100.00
19457;BME280;9867;48.094;11.478;2022-10-26T03:12:16;95258.00;;;12.17;100.00
19457;BME280;9867;48.094;11.478;2022-10-26T03:14:44;95248.63;;;12.29;100.00
19457;BME280;9867;48.094;11.478;2022-10-26T03:17:12;95255.22;;;12.25;100.00
19457;BME280;9867;48.094;11.478;2022-10-26T03:19:41;95249.69;;;12.21;100.00
19457;BME280;9867;48.094;11.478;2022-10-26T03:22:10;95243.66;;;12.41;100.00
19457;BME280;9867;48.094;11.478;2022-10-26T03:24:38;95263.34;;;12.67;100.00
19457;BME280;9867;48.094;11.478;2022-10-26T03:27:05;95257.00;;;12.69;100.00
19457;BME280;9867;48.094;11.478;2022-10-26T03:29:33;95256.59;;;12.66;100.00
19457;BME280;9867;48.094;11.478;2022-10-26T03:32:01;95261.53;;;12.74;100.00
19457;BME280;9867;48.094;11.478;2022-10-26T03:34:28;95268.13;;;12.94;100.00
19457;BME280;9867;48.094;11.478;2022-10-26T03:36:56;95270.31;;;12.97;100.00
19457;BME280;9867;48.094;11.478;2022-10-26T03:39:26;95264.09;;;13.05;100.00
19457;BME280;9867;48.094;11.478;2022-10-26T03:41:53;95268.22;;;13.13;100.00
19457;BME280;9867;48.094;11.478;2022-10-26T03:44:22;95276.06;;;13.24;100.00
19457;BME280;9867;48.094;11.478;2022-10-26T03:46:49;95273.38;;;13.13;100.00
19457;BME280;9867;48.094;11.478;2022-10-26T03:49:17;95271.41;;;13.08;100.00
19457;BME280;9867;48.094;11.478;2022-10-26T03:51:45;95276.56;;;13.08;100.00
19457;BME280;9867;48.094;11.478;2022-10-26T03:54:13;95282.41;;;12.90;100.00
19457;BME280;9867;48.094;11.478;2022-10-26T03:56:42;95275.00;;;12.69;100.00
19457;BME280;9867;48.094;11.478;2022-10-26T03:59:10;95275.19;;;12.74;100.00
19457;BME280;9867;48.094;11.478;2022-10-26T04:01:37;95270.53;;;12.89;100.00
19457;BME280;9867;48.094;11.478;2022-10-26T04:04:06;95287.53;;;12.97;100.00
19457;BME280;9867;48.094;11.478;2022-10-26T04:06:34;95287.88;;;13.01;100.00
19457;BME280;9867;48.094;11.478;2022-10-26T04:09:06;95292.97;;;13.20;100.00
19457;BME280;9867;48.094;11.478;2022-10-26T04:11:33;95293.06;;;13.32;100.00
19457;BME280;9867;48.094;11.478;2022-10-26T04:14:03;95299.16;;;13.44;100.00
19457;BME280;9867;48.094;11.478;2022-10-26T04:16:30;95296.19;;;13.41;100.00
19457;BME280;9867;48.094;11.478;2022-10-26T04:18:59;95301.72;;;13.44;100.00
19457;BME280;9867;48.094;11.478;2022-10-26T04:21:27;95297.66;;;13.55;100.00
19457;BME280;9867;48.094;11.478;2022-10-26T04:23:54;95291.47;;;13.62;100.00
19457;BME280;9867;48.094;11.478;2022-10-26T04:26:22;95296.97;;;13.66;100.00
19457;BME280;9867;48.094;11.478;2022-10-26T04:28:50;95297.13;;;13.71;100.00
19457;BME280;9867;48.094;11.478;2022-10-26T04:31:19;95289.47;;;13.64;100.00
19457;BME280;9867;48.094;11.478;2022-10-26T04:33:47;95303.72;;;13.67;100.00
19457;BME280;9867;48.094;11.478;2022-10-26T04:36:15;95289.88;;;13.61;100.00
19457;BME280;9867;48.094;11.478;2022-10-26T04:38:42;95301.66;;;13.76;100.00
19457;BME280;9867;48.094;11.478;2022-10-26T04:41:10;95312.91;;;13.81;100.00
19457;BME280;9867;48.094;11.478;2022-10-26T04:43:38;95314.91;;;13.54;100.00
19457;BME280;9867;48.094;11.478;2022-10-26T04:46:06;95341.84;;;13.58;100.00
19457;BME280;9867;48.094;11.478;2022-10-26T04:48:36;95344.81;;;13.30;100.00
19457;BME280;9867;48.094;11.478;2022-10-26T04:51:04;95356.91;;;13.30;100.00
19457;BME280;9867;48.094;11.478;2022-10-26T04:53:32;95370.00;;;13.28;100.00
19457;BME280;9867;48.094;11.478;2022-10-26T04:56:00;95381.06;;;13.36;100.00
19457;BME280;9867;48.094;11.478;2022-10-26T04:58:28;95382.66;;;13.37;100.00
19457;BME280;9867;48.094;11.478;2022-10-26T05:00:56;95399.53;;;13.26;100.00
19457;BME280;9867;48.094;11.478;2022-10-26T05:03:24;95406.94;;;13.03;100.00
19457;BME280;9867;48.094;11.478;2022-10-26T05:05:53;95407.16;;;13.01;100.00
19457;BME280;9867;48.094;11.478;2022-10-26T05:08:20;95418.59;;;13.12;100.00
19457;BME280;9867;48.094;11.478;2022-10-26T05:10:49;95423.38;;;13.21;100.00
19457;BME280;9867;48.094;11.478;2022-10-26T05:13:17;95423.94;;;13.23;100.00
19457;BME280;9867;48.094;11.478;2022-10-26T05:15:44;95414.06;;;13.20;100.00
19457;BME280;9867;48.094;11.478;2022-10-26T05:18:12;95408.13;;;13.07;100.00
19457;BME280;9867;48.094;11.478;2022-10-26T05:20:40;95396.94;;;13.32;100.00
19457;BME280;9867;48.094;11.478;2022-10-26T05:23:11;95405.25;;;13.35;100.00
19457;BME280;9867;48.094;11.478;2022-10-26T05:25:43;95400.84;;;13.42;100.00
19457;BME280;9867;48.094;11.478;2022-10-26T05:28:12;95387.34;;;13.46;100.00
19457;BME280;9867;48.094;11.478;2022-10-26T05:30:42;95418.00;;;13.61;100.00
19457;BME280;9867;48.094;11.478;2022-10-26T05:33:11;95425.56;;;13.56;100.00
19457;BME280;9867;48.094;11.478;2022-10-26T05:35:39;95422.78;;;13.51;100.00
19457;BME280;9867;48.094;11.478;2022-10-26T05:38:11;95433.03;;;13.64;100.00
19457;BME280;9867;48.094;11.478;2022-10-26T05:40:46;95438.38;;;13.69;100.00
19457;BME280;9867;48.094;11.478;2022-10-26T05:43:14;95444.72;;;13.67;100.00
19457;BME280;9867;48.094;11.478;2022-10-26T05:45:42;95445.16;;;13.63;100.00
19457;BME280;9867;48.094;11.478;2022-10-26T05:48:09;95443.34;;;13.64;100.00
19457;BME280;9867;48.094;11.478;2022-10-26T05:50:37;95437.91;;;13.79;100.00
19457;BME280;9867;48.094;11.478;2022-10-26T05:53:05;95446.63;;;13.78;100.00
19457;BME280;9867;48.094;11.478;2022-10-26T05:55:35;95440.28;;;13.80;100.00
19457;BME280;9867;48.094;11.478;2022-10-26T05:58:05;95441.84;;;13.81;100.00
19457;BME280;9867;48.094;11.478;2022-10-26T06:00:40;95440.84;;;13.82;100.00
19457;BME280;9867;48.094;11.478;2022-10-26T06:03:22;95449.88;;;13.67;100.00
19457;BME280;9867;48.094;11.478;2022-10-26T06:05:59;95456.41;;;13.69;100.00
19457;BME280;9867;48.094;11.478;2022-10-26T06:08:32;95462.38;;;13.70;100.00
19457;BME280;9867;48.094;11.478;2022-10-26T06:11:02;95463.50;;;13.74;100.00
19457;BME280;9867;48.094;11.478;2022-10-26T06:13:30;95473.91;;;13.60;100.00
19457;BME280;9867;48.094;11.478;2022-10-26T06:16:05;95450.59;;;12.91;100.00
19457;BME280;9867;48.094;11.478;2022-10-26T06:18:42;95447.94;;;13.04;100.00
19457;BME280;9867;48.094;11.478;2022-10-26T06:21:27;95450.47;;;13.24;100.00
19457;BME280;9867;48.094;11.478;2022-10-26T06:24:06;95452.03;;;13.38;100.00
19457;BME280;9867;48.094;11.478;2022-10-26T06:26:43;95464.81;;;13.51;100.00
19457;BME280;9867;48.094;11.478;2022-10-26T06:29:20;95469.25;;;13.44;100.00
19457;BME280;9867;48.094;11.478;2022-10-26T06:31:49;95466.47;;;13.46;100.00
19457;BME280;9867;48.094;11.478;2022-10-26T06:34:21;95472.13;;;13.61;100.00
19457;BME280;9867;48.094;11.478;2022-10-26T06:36:50;95467.53;;;13.70;100.00
19457;BME280;9867;48.094;11.478;2022-10-26T06:39:24;95466.94;;;13.68;100.00
19457;BME280;9867;48.094;11.478;2022-10-26T06:41:56;95472.03;;;13.74;100.00
19457;BME280;9867;48.094;11.478;2022-10-26T06:44:24;95477.75;;;13.83;100.00
19457;BME280;9867;48.094;11.478;2022-10-26T06:46:58;95478.31;;;13.91;100.00
19457;BME280;9867;48.094;11.478;2022-10-26T06:49:31;95482.81;;;13.96;100.00
19457;BME280;9867;48.094;11.478;2022-10-26T06:52:07;95482.00;;;14.02;100.00
19457;BME280;9867;48.094;11.478;2022-10-26T06:54:45;95495.53;;;14.22;100.00
19457;BME280;9867;48.094;11.478;2022-10-26T06:57:16;95490.75;;;14.26;100.00
19457;BME280;9867;48.094;11.478;2022-10-26T06:59:48;95494.13;;;14.26;100.00
19457;BME280;9867;48.094;11.478;2022-10-26T07:02:17;95494.50;;;14.30;100.00
19457;BME280;9867;48.094;11.478;2022-10-26T07:04:45;95493.50;;;14.31;100.00
19457;BME280;9867;48.094;11.478;2022-10-26T07:07:14;95487.13;;;14.33;100.00
19457;BME280;9867;48.094;11.478;2022-10-26T07:09:44;95487.53;;;14.30;100.00
19457;BME280;9867;48.094;11.478;2022-10-26T07:12:12;95487.91;;;14.34;100.00
19457;BME280;9867;48.094;11.478;2022-10-26T07:14:41;95496.78;;;14.45;100.00
19457;BME280;9867;48.094;11.478;2022-10-26T07:17:10;95502.06;;;14.56;100.00
19457;BME280;9867;48.094;11.478;2022-10-26T07:19:37;95504.53;;;14.45;100.00
19457;BME280;9867;48.094;11.478;2022-10-26T07:22:06;95500.06;;;14.27;100.00
19457;BME280;9867;48.094;11.478;2022-10-26T07:24:34;95501.41;;;14.05;100.00
19457;BME280;9867;48.094;11.478;2022-10-26T07:27:01;95499.94;;;13.90;100.00
19457;BME280;9867;48.094;11.478;2022-10-26T07:29:29;95503.34;;;13.84;100.00
19457;BME280;9867;48.094;11.478;2022-10-26T07:31:59;95502.97;;;13.81;100.00
19457;BME280;9867;48.094;11.478;2022-10-26T07:34:27;95502.13;;;13.87;100.00
19457;BME280;9867;48.094;11.478;2022-10-26T07:36:55;95487.63;;;13.92;100.00
19457;BME280;9867;48.094;11.478;2022-10-26T07:39:23;95490.31;;;14.04;100.00
19457;BME280;9867;48.094;11.478;2022-10-26T07:41:50;95488.88;;;14.15;100.00
19457;BME280;9867;48.094;11.478;2022-10-26T07:44:18;95471.25;;;14.05;100.00
19457;BME280;9867;48.094;11.478;2022-10-26T07:46:46;95480.75;;;13.80;100.00
19457;BME280;9867;48.094;11.478;2022-10-26T07:49:15;95485.56;;;14.01;100.00
19457;BME280;9867;48.094;11.478;2022-10-26T07:51:45;95479.94;;;14.11;100.00
19457;BME280;9867;48.094;11.478;2022-10-26T07:54:13;95483.41;;;14.23;100.00
19457;BME280;9867;48.094;11.478;2022-10-26T07:56:41;95476.84;;;14.27;100.00
19457;BME280;9867;48.094;11.478;2022-10-26T07:59:10;95484.28;;;14.17;100.00
19457;BME280;9867;48.094;11.478;2022-10-26T08:01:38;95475.78;;;14.10;100.00
19457;BME280;9867;48.094;11.478;2022-10-26T08:04:05;95477.09;;;14.50;100.00
19457;BME280;9867;48.094;11.478;2022-10-26T08:06:35;95482.13;;;14.63;100.00
19457;BME280;9867;48.094;11.478;2022-10-26T08:09:03;95494.59;;;14.66;100.00
19457;BME280;9867;48.094;11.478;2022-10-26T08:11:31;95489.00;;;14.70;100.00
19457;BME280;9867;48.094;11.478;2022-10-26T08:14:02;95484.44;;;14.72;100.00
19457;BME280;9867;48.094;11.478;2022-10-26T08:16:30;95492.19;;;14.72;100.00
19457;BME280;9867;48.094;11.478;2022-10-26T08:19:00;95503.41;;;14.84;100.00
19457;BME280;9867;48.094;11.478;2022-10-26T08:21:28;95503.50;;;14.71;100.00
19457;BME280;9867;48.094;11.478;2022-10-26T08:24:07;95494.88;;;15.01;100.00
19457;BME280;9867;48.094;11.478;2022-10-26T08:26:35;95496.44;;;15.21;100.00
19457;BME280;9867;48.094;11.478;2022-10-26T08:29:03;95495.75;;;15.32;100.00
19457;BME280;9867;48.094;11.478;2022-10-26T08:31:31;95496.06;;;15.54;100.00
19457;BME280;9867;48.094;11.478;2022-10-26T08:33:59;95493.56;;;15.65;100.00
19457;BME280;9867;48.094;11.478;2022-10-26T08:36:27;95489.78;;;15.80;100.00
19457;BME280;9867;48.094;11.478;2022-10-26T08:38:55;95502.38;;;15.76;100.00
19457;BME280;9867;48.094;11.478;2022-10-26T08:41:32;95508.81;;;15.85;100.00
19457;BME280;9867;48.094;11.478;2022-10-26T08:44:06;95504.19;;;16.17;100.00
19457;BME280;9867;48.094;11.478;2022-10-26T08:46:41;95514.50;;;16.47;100.00
19457;BME280;9867;48.094;11.478;2022-10-26T08:49:18;95511.56;;;16.55;100.00
19457;BME280;9867;48.094;11.478;2022-10-26T08:51:48;95529.41;;;16.98;100.00
19457;BME280;9867;48.094;11.478;2022-10-26T08:54:20;95529.06;;;17.18;100.00
19457;BME280;9867;48.094;11.478;2022-10-26T08:56:53;95533.97;;;17.31;100.00
19457;BME280;9867;48.094;11.478;2022-10-26T08:59:27;95531.16;;;17.33;100.00
19457;BME280;9867;48.094;11.478;2022-10-26T09:01:57;95524.41;;;17.32;100.00
19457;BME280;9867;48.094;11.478;2022-10-26T09:04:29;95526.41;;;17.42;100.00
19457;BME280;9867;48.094;11.478;2022-10-26T09:07:04;95535.19;;;17.52;100.00
19457;BME280;9867;48.094;11.478;2022-10-26T09:09:42;95532.69;;;17.57;100.00
19457;BME280;9867;48.094;11.478;2022-10-26T09:12:18;95528.19;;;17.53;100.00
19457;BME280;9867;48.094;11.478;2022-10-26T09:14:59;95527.34;;;17.76;100.00
19457;BME280;9867;48.094;11.478;2022-10-26T09:17:38;95528.09;;;17.88;100.00
19457;BME280;9867;48.094;11.478;2022-10-26T09:20:36;95526.66;;;18.09;100.00
19457;BME280;9867;48.094;11.478;2022-10-26T09:23:15;95536.50;;;18.23;100.00
19457;BME280;9867;48.094;11.478;2022-10-26T09:25:49;95544.81;;;18.54;100.00
19457;BME280;9867;48.094;11.478;2022-10-26T09:28:22;95533.50;;;18.77;100.00
19457;BME280;9867;48.094;11.478;2022-10-26T09:30:50;95536.66;;;18.79;100.00
19457;BME280;9867;48.094;11.478;2022-10-26T09:33:21;95547.50;;;19.09;100.00
19457;BME280;9867;48.094;11.478;2022-10-26T09:35:51;95550.22;;;19.19;100.00
19457;BME280;9867;48.094;11.478;2022-10-26T09:38:26;95549.94;;;19.37;100.00
19457;BME280;9867;48.094;11.478;2022-10-26T09:40:59;95560.84;;;19.34;100.00
19457;BME280;9867;48.094;11.478;2022-10-26T09:43:32;95564.53;;;19.55;100.00
19457;BME280;9867;48.094;11.478;2022-10-26T09:46:02;95575.47;;;19.40;100.00
19457;BME280;9867;48.094;11.478;2022-10-26T09:48:34;95570.50;;;19.39;100.00
19457;BME280;9867;48.094;11.478;2022-10-26T09:51:05;95582.19;;;19.53;100.00
19457;BME280;9867;48.094;11.478;2022-10-26T09:53:33;95582.81;;;19.60;100.00
19457;BME280;9867;48.094;11.478;2022-10-26T09:56:03;95588.28;;;19.25;100.00
19457;BME280;9867;48.094;11.478;2022-10-26T09:58:43;95587.16;;;19.55;100.00
19457;BME280;9867;48.094;11.478;2022-10-26T10:01:27;95594.38;;;19.31;100.00
19457;BME280;9867;48.094;11.478;2022-10-26T10:04:09;95589.31;;;19.24;100.00
19457;BME280;9867;48.094;11.478;2022-10-26T10:06:44;95597.53;;;18.99;100.00
19457;BME280;9867;48.094;11.478;2022-10-26T10:09:13;95602.53;;;18.84;100.00
19457;BME280;9867;48.094;11.478;2022-10-26T10:11:43;95598.03;;;18.80;100.00
19457;BME280;9867;48.094;11.478;2022-10-26T10:14:16;95604.34;;;18.84;100.00
19457;BME280;9867;48.094;11.478;2022-10-26T10:16:54;95594.47;;;19.02;100.00
19457;BME280;9867;48.094;11.478;2022-10-26T10:19:24;95601.78;;;19.22;100.00
19457;BME280;9867;48.094;11.478;2022-10-26T10:21:57;95601.28;;;19.59;100.00
19457;BME280;9867;48.094;11.478;2022-10-26T10:24:27;95604.72;;;19.48;100.00
19457;BME280;9867;48.094;11.478;2022-10-26T10:26:58;95606.91;;;19.34;100.00
19457;BME280;9867;48.094;11.478;2022-10-26T10:29:29;95614.53;;;19.24;100.00
19457;BME280;9867;48.094;11.478;2022-10-26T10:31:58;95612.66;;;19.19;100.00
19457;BME280;9867;48.094;11.478;2022-10-26T10:34:26;95632.13;;;19.17;100.00
19457;BME280;9867;48.094;11.478;2022-10-26T10:36:56;95617.16;;;19.24;100.00
19457;BME280;9867;48.094;11.478;2022-10-26T10:39:43;95620.69;;;19.18;100.00
19457;BME280;9867;48.094;11.478;2022-10-26T10:42:17;95622.75;;;19.32;100.00
19457;BME280;9867;48.094;11.478;2022-10-26T10:44:49;95616.53;;;19.33;100.00
19457;BME280;9867;48.094;11.478;2022-10-26T10:47:22;95623.84;;;19.20;100.00
19457;BME280;9867;48.094;11.478;2022-10-26T10:49:53;95637.03;;;18.96;100.00
19457;BME280;9867;48.094;11.478;2022-10-26T10:52:24;95621.50;;;19.01;100.00
19457;BME280;9867;48.094;11.478;2022-10-26T10:55:01;95628.13;;;19.09;100.00
19457;BME280;9867;48.094;11.478;2022-10-26T10:57:40;95633.03;;;18.89;100.00
19457;BME280;9867;48.094;11.478;2022-10-26T11:00:12;95621.66;;;18.95;100.00
19457;BME280;9867;48.094;11.478;2022-10-26T11:05:49;95625.84;;;19.13;100.00
19457;BME280;9867;48.094;11.478;2022-10-26T11:08:24;95629.31;;;19.01;100.00
19457;BME280;9867;48.094;11.478;2022-10-26T11:10:59;95626.38;;;19.15;100.00
19457;BME280;9867;48.094;11.478;2022-10-26T11:13:32;95625.34;;;19.32;100.00
19457;BME280;9867;48.094;11.478;2022-10-26T11:16:05;95631.53;;;19.48;100.00
19457;BME280;9867;48.094;11.478;2022-10-26T11:18:40;95625.94;;;19.39;100.00
19457;BME280;9867;48.094;11.478;2022-10-26T11:21:19;95623.94;;;19.25;100.00
19457;BME280;9867;48.094;11.478;2022-10-26T11:23:51;95621.88;;;19.27;100.00
19457;BME280;9867;48.094;11.478;2022-10-26T11:26:27;95630.16;;;19.24;100.00
19457;BME280;9867;48.094;11.478;2022-10-26T11:28:58;95629.13;;;19.25;100.00
19457;BME280;9867;48.094;11.478;2022-10-26T11:31:32;95632.41;;;19.37;100.00
19457;BME280;9867;48.094;11.478;2022-10-26T11:34:12;95633.31;;;19.26;100.00
19457;BME280;9867;48.094;11.478;2022-10-26T11:36:46;95635.50;;;19.17;100.00
19457;BME280;9867;48.094;11.478;2022-10-26T11:39:21;95644.44;;;19.04;100.00
19457;BME280;9867;48.094;11.478;2022-10-26T11:41:55;95638.78;;;19.07;100.00
19457;BME280;9867;48.094;11.478;2022-10-26T11:44:31;95637.97;;;19.07;100.00
19457;BME280;9867;48.094;11.478;2022-10-26T11:47:05;95648.53;;;19.34;100.00
19457;BME280;9867;48.094;11.478;2022-10-26T11:49:39;95652.06;;;19.28;100.00
19457;BME280;9867;48.094;11.478;2022-10-26T11:52:12;95649.16;;;19.24;100.00
19457;BME280;9867;48.094;11.478;2022-10-26T11:54:46;95659.50;;;19.02;100.00
19457;BME280;9867;48.094;11.478;2022-10-26T11:57:18;95658.22;;;18.88;100.00
19457;BME280;9867;48.094;11.478;2022-10-26T11:59:50;95664.38;;;18.82;100.00
19457;BME280;9867;48.094;11.478;2022-10-26T12:02:22;95660.16;;;18.64;100.00
19457;BME280;9867;48.094;11.478;2022-10-26T12:04:53;95656.66;;;18.59;100.00
19457;BME280;9867;48.094;11.478;2022-10-26T12:07:25;95666.72;;;18.55;100.00
19457;BME280;9867;48.094;11.478;2022-10-26T12:09:56;95663.56;;;18.53;100.00
19457;BME280;9867;48.094;11.478;2022-10-26T12:12:31;95671.03;;;18.50;100.00
19457;BME280;9867;48.094;11.478;2022-10-26T12:15:15;95664.59;;;18.52;100.00
19457;BME280;9867;48.094;11.478;2022-10-26T12:17:49;95673.88;;;18.48;100.00
19457;BME280;9867;48.094;11.478;2022-10-26T12:20:52;95670.25;;;18.49;100.00
19457;BME280;9867;48.094;11.478;2022-10-26T12:23:22;95670.84;;;18.68;100.00
19457;BME280;9867;48.094;11.478;2022-10-26T12:26:37;95684.00;;;19.06;100.00
19457;BME280;9867;48.094;11.478;2022-10-26T12:29:28;95683.19;;;19.39;100.00
19457;BME280;9867;48.094;11.478;2022-10-26T12:31:56;95689.00;;;19.58;100.00
19457;BME280;9867;48.094;11.478;2022-10-26T12:35:01;95685.88;;;19.78;100.00
19457;BME280;9867;48.094;11.478;2022-10-26T12:37:34;95684.88;;;19.62;100.00
19457;BME280;9867;48.094;11.478;2022-10-26T12:43:35;95694.56;;;19.84;100.00
19457;BME280;9867;48.094;11.478;2022-10-26T12:52:32;95695.59;;;20.04;100.00
19457;BME280;9867;48.094;11.478;2022-10-26T12:55:24;95698.47;;;19.86;100.00
19457;BME280;9867;48.094;11.478;2022-10-26T13:00:50;95708.00;;;19.59;100.00
19457;BME280;9867;48.094;11.478;2022-10-26T13:03:31;95702.59;;;19.49;100.00
19457;BME280;9867;48.094;11.478;2022-10-26T13:06:20;95703.19;;;19.51;100.00
19457;BME280;9867;48.094;11.478;2022-10-26T13:08:57;95701.59;;;19.50;100.00
19457;BME280;9867;48.094;11.478;2022-10-26T13:11:30;95705.53;;;19.35;100.00
19457;BME280;9867;48.094;11.478;2022-10-26T13:14:01;95707.19;;;19.41;100.00
19457;BME280;9867;48.094;11.478;2022-10-26T13:16:31;95706.72;;;19.45;100.00
19457;BME280;9867;48.094;11.478;2022-10-26T13:18:59;95719.50;;;19.29;100.00
19457;BME280;9867;48.094;11.478;2022-10-26T13:21:27;95707.50;;;19.28;100.00
19457;BME280;9867;48.094;11.478;2022-10-26T13:23:57;95714.75;;;19.10;100.00
19457;BME280;9867;48.094;11.478;2022-10-26T13:26:28;95706.53;;;19.18;100.00
19457;BME280;9867;48.094;11.478;2022-10-26T13:28:58;95712.72;;;19.12;100.00
19457;BME280;9867;48.094;11.478;2022-10-26T13:31:51;95710.09;;;19.12;100.00
19457;BME280;9867;48.094;11.478;2022-10-26T13:34:21;95709.09;;;19.13;100.00